createdAt,value
2023-03-29T05:03:04.980Z,11.20
2023-03-29T05:05:41.875Z,11.25
2023-03-29T05:08:12.483Z,10.50
2023-03-29T05:10:52.858Z,9.63
2023-03-29T05:13:23.500Z,11.68
2023-03-29T05:15:59.930Z,12.15
2023-03-29T05:18:39.961Z,11.57
2023-03-29T05:21:10.448Z,8.52
2023-03-29T05:23:46.893Z,9.93
2023-03-29T05:26:17.529Z,11.10
2023-03-29T05:28:54.928Z,9.98
2023-03-29T05:31:25.541Z,12.50
2023-03-29T05:34:04.880Z,13.95
2023-03-29T05:36:41.938Z,9.32
2023-03-29T05:39:12.205Z,9.27
2023-03-29T05:41:48.930Z,10.20
2023-03-29T05:44:25.974Z,10.93
2023-03-29T05:46:57.413Z,8.43
2023-03-29T05:49:37.096Z,9.45
2023-03-29T05:52:07.745Z,11.90
2023-03-29T05:54:44.947Z,10.00
2023-03-29T05:57:15.383Z,10.30
2023-03-29T05:59:51.989Z,9.02
2023-03-29T06:02:22.351Z,10.38
2023-03-29T06:05:02.031Z,14.40
2023-03-29T06:07:32.353Z,10.20
2023-03-29T06:10:09.995Z,9.93
2023-03-29T06:12:42.804Z,12.48
2023-03-29T06:15:21.007Z,14.70
2023-03-29T06:17:51.740Z,11.70
2023-03-29T06:20:32.022Z,10.98
2023-03-29T06:23:02.345Z,11.43
2023-03-29T06:25:38.928Z,10.63
2023-03-29T06:28:16.013Z,11.80
2023-03-29T06:30:48.453Z,11.65
2023-03-29T06:33:27.013Z,11.05
2023-03-29T06:36:00.288Z,13.13
2023-03-29T06:38:37.990Z,12.77
2023-03-29T06:41:18.010Z,13.88
2023-03-29T06:43:48.226Z,13.85
2023-03-29T06:46:26.216Z,11.80
2023-03-29T06:49:03.047Z,13.38
2023-03-29T06:51:35.787Z,13.80
2023-03-29T06:54:13.039Z,11.52
2023-03-29T06:56:50.045Z,12.23
2023-03-29T06:59:20.404Z,11.63
2023-03-29T07:01:57.170Z,12.93
2023-03-29T07:04:34.074Z,14.40
2023-03-29T07:07:12.164Z,13.05
2023-03-29T07:09:49.083Z,12.73
2023-03-29T07:12:19.255Z,13.45
2023-03-29T07:14:56.012Z,13.02
2023-03-29T07:17:26.193Z,13.98
2023-03-29T07:20:03.013Z,11.88
2023-03-29T07:22:35.756Z,11.85
2023-03-29T07:25:12.066Z,15.73
2023-03-29T07:27:43.966Z,13.23
2023-03-29T07:32:54.567Z,14.10
2023-03-29T07:35:31.135Z,12.73
2023-03-29T07:38:11.106Z,13.45
2023-03-29T07:40:41.339Z,13.98
2023-03-29T07:43:18.033Z,12.70
2023-03-29T07:45:55.106Z,13.57
2023-03-29T07:48:25.534Z,15.60
2023-03-29T07:51:02.328Z,13.68
2023-03-29T07:53:35.389Z,16.30
2023-03-29T07:56:12.077Z,14.38
2023-03-29T07:58:49.098Z,12.40
2023-03-29T08:01:19.979Z,20.92
2023-03-29T08:03:57.156Z,20.67
2023-03-29T08:06:28.512Z,15.05
2023-03-29T08:09:08.098Z,13.23
2023-03-29T08:11:46.159Z,13.25
2023-03-29T08:14:17.585Z,15.52
2023-03-29T08:16:54.122Z,16.90
2023-03-29T08:19:24.322Z,19.20
2023-03-29T08:22:01.171Z,17.33
2023-03-29T08:24:34.026Z,18.92
2023-03-29T08:27:11.145Z,14.57
2023-03-29T08:29:48.163Z,15.90
2023-03-29T08:32:18.311Z,17.42
2023-03-29T08:34:55.183Z,16.83
2023-03-29T08:37:32.195Z,17.15
2023-03-29T08:40:06.366Z,17.73
2023-03-29T08:43:21.151Z,16.17
2023-03-29T08:46:06.096Z,16.80
2023-03-29T08:48:49.126Z,17.58
2023-03-29T08:51:28.213Z,17.63
2023-03-29T08:54:11.137Z,17.23
2023-03-29T08:56:54.250Z,18.38
2023-03-29T08:59:38.181Z,18.35
2023-03-29T09:02:15.655Z,17.27
2023-03-29T09:04:56.192Z,18.60
2023-03-29T09:07:26.777Z,17.95
2023-03-29T09:10:04.233Z,17.75
2023-03-29T09:12:56.442Z,17.85
2023-03-29T09:18:20.478Z,17.17
2023-03-29T09:21:03.323Z,20.23
2023-03-29T09:24:13.842Z,16.80
2023-03-29T09:26:59.177Z,19.02
2023-03-29T09:29:49.357Z,17.90
2023-03-29T09:32:32.292Z,16.40
2023-03-29T09:35:18.795Z,23.15
2023-03-29T09:37:58.253Z,18.05
2023-03-29T09:40:34.425Z,20.63
2023-03-29T09:43:14.234Z,20.83
2023-03-29T09:45:50.244Z,19.48
2023-03-29T09:48:29.260Z,19.10
2023-03-29T09:50:59.970Z,19.90
2023-03-29T09:53:37.215Z,17.20
2023-03-29T09:56:09.797Z,18.88
2023-03-29T09:58:47.274Z,16.95
2023-03-29T10:01:20.947Z,17.80
2023-03-29T10:04:03.330Z,15.18
2023-03-29T10:06:34.462Z,17.10
2023-03-29T10:09:12.311Z,17.95
2023-03-29T10:11:46.813Z,17.23
2023-03-29T10:14:29.315Z,17.77
2023-03-29T10:17:09.289Z,20.80
2023-03-29T10:19:39.616Z,17.80
2023-03-29T10:22:26.337Z,16.50
2023-03-29T10:24:59.717Z,17.42
2023-03-29T10:27:39.290Z,16.58
2023-03-29T10:30:15.986Z,15.93
2023-03-29T10:32:55.328Z,17.67
2023-03-29T10:35:32.100Z,17.52
2023-03-29T10:38:12.328Z,18.88
2023-03-29T10:40:54.325Z,14.80
2023-03-29T10:46:15.298Z,18.55
2023-03-29T10:48:52.650Z,18.60
2023-03-29T10:51:29.430Z,16.92
2023-03-29T10:54:01.582Z,17.45
2023-03-29T10:56:48.344Z,13.50
2023-03-29T10:59:41.316Z,11.32
2023-03-29T11:02:56.514Z,12.85
2023-03-29T11:05:44.347Z,17.67
2023-03-29T11:08:43.224Z,15.88
2023-03-29T11:11:39.305Z,14.50
2023-03-29T11:14:17.979Z,14.10
2023-03-29T11:17:08.415Z,20.10
2023-03-29T11:19:57.796Z,16.38
2023-03-29T11:22:48.400Z,17.85
2023-03-29T11:25:32.966Z,16.98
2023-03-29T11:28:20.547Z,18.17
2023-03-29T11:31:00.679Z,17.67
2023-03-29T11:33:50.364Z,16.38
2023-03-29T11:36:28.214Z,17.13
2023-03-29T11:39:18.455Z,18.50
2023-03-29T11:41:52.859Z,16.58
2023-03-29T11:44:34.472Z,17.00
2023-03-29T11:47:12.004Z,17.15
2023-03-29T11:49:53.479Z,21.65
2023-03-29T11:52:31.104Z,18.55
2023-03-29T11:55:16.530Z,17.98
2023-03-29T11:57:59.506Z,19.73
2023-03-29T12:00:35.833Z,16.08
2023-03-29T12:03:21.532Z,18.02
2023-03-29T12:06:01.495Z,19.52
2023-03-29T12:08:38.028Z,20.60
2023-03-29T12:11:24.427Z,17.50
2023-03-29T12:14:06.479Z,19.92
2023-03-29T12:16:45.313Z,16.85
2023-03-29T12:19:31.502Z,19.80
2023-03-29T12:22:08.096Z,20.67
2023-03-29T12:24:48.513Z,19.77
2023-03-29T12:27:29.816Z,17.80
2023-03-29T12:30:46.429Z,22.02
2023-03-29T12:33:54.398Z,19.67
2023-03-29T12:37:10.508Z,18.30
2023-03-29T12:39:41.825Z,17.92
2023-03-29T12:42:27.580Z,15.52
2023-03-29T12:45:04.539Z,17.45
2023-03-29T12:47:49.591Z,16.95
2023-03-29T12:50:31.446Z,18.20
2023-03-29T12:53:24.511Z,16.50
2023-03-29T12:56:12.031Z,15.63
2023-03-29T12:59:15.511Z,15.68
